sensor_id;sensor_type;location;lat;lon;timestamp;P1;durP1;ratioP1;P2;durP2;ratioP2
71572;SDS011;59408;51.032;9.410;2023-03-14T00:00:22;3.27;;;0.80;;
71572;SDS011;59408;51.032;9.410;2023-03-14T00:02:51;2.38;;;0.70;;
71572;SDS011;59408;51.032;9.410;2023-03-14T00:05:18;4.55;;;0.85;;
71572;SDS011;59408;51.032;9.410;2023-03-14T00:07:45;2.20;;;0.60;;
71572;SDS011;59408;51.032;9.410;2023-03-14T00:10:13;2.58;;;0.60;;
71572;SDS011;59408;51.032;9.410;2023-03-14T00:12:42;3.67;;;0.80;;
71572;SDS011;59408;51.032;9.410;2023-03-14T00:15:09;2.47;;;0.80;;
71572;SDS011;59408;51.032;9.410;2023-03-14T00:17:36;3.08;;;0.80;;
71572;SDS011;59408;51.032;9.410;2023-03-14T00:20:04;2.92;;;0.80;;
71572;SDS011;59408;51.032;9.410;2023-03-14T00:22:33;4.15;;;0.88;;
71572;SDS011;59408;51.032;9.410;2023-03-14T00:25:00;3.57;;;0.90;;
71572;SDS011;59408;51.032;9.410;2023-03-14T00:27:27;4.43;;;1.20;;
71572;SDS011;59408;51.032;9.410;2023-03-14T00:29:55;3.85;;;1.27;;
71572;SDS011;59408;51.032;9.410;2023-03-14T00:32:21;5.03;;;1.20;;
71572;SDS011;59408;51.032;9.410;2023-03-14T00:34:48;4.05;;;1.40;;
71572;SDS011;59408;51.032;9.410;2023-03-14T00:37:15;4.47;;;1.40;;
71572;SDS011;59408;51.032;9.410;2023-03-14T00:39:42;4.13;;;1.50;;
71572;SDS011;59408;51.032;9.410;2023-03-14T00:42:09;5.13;;;1.63;;
71572;SDS011;59408;51.032;9.410;2023-03-14T00:44:36;4.85;;;1.40;;
71572;SDS011;59408;51.032;9.410;2023-03-14T00:47:04;5.00;;;1.63;;
71572;SDS011;59408;51.032;9.410;2023-03-14T00:49:30;5.17;;;1.97;;
71572;SDS011;59408;51.032;9.410;2023-03-14T00:51:57;5.20;;;1.48;;
71572;SDS011;59408;51.032;9.410;2023-03-14T00:54:24;5.32;;;1.90;;
71572;SDS011;59408;51.032;9.410;2023-03-14T00:56:50;6.22;;;1.83;;
71572;SDS011;59408;51.032;9.410;2023-03-14T00:59:17;5.40;;;1.70;;
71572;SDS011;59408;51.032;9.410;2023-03-14T01:01:44;5.07;;;1.70;;
71572;SDS011;59408;51.032;9.410;2023-03-14T01:04:12;5.50;;;1.70;;
71572;SDS011;59408;51.032;9.410;2023-03-14T01:06:39;7.72;;;2.15;;
71572;SDS011;59408;51.032;9.410;2023-03-14T01:09:05;6.43;;;2.15;;
71572;SDS011;59408;51.032;9.410;2023-03-14T01:11:33;5.53;;;1.95;;
71572;SDS011;59408;51.032;9.410;2023-03-14T01:14:01;5.73;;;1.87;;
71572;SDS011;59408;51.032;9.410;2023-03-14T01:16:28;5.50;;;2.20;;
71572;SDS011;59408;51.032;9.410;2023-03-14T01:18:56;6.25;;;2.20;;
71572;SDS011;59408;51.032;9.410;2023-03-14T01:21:25;7.43;;;2.25;;
71572;SDS011;59408;51.032;9.410;2023-03-14T01:23:54;5.32;;;2.25;;
71572;SDS011;59408;51.032;9.410;2023-03-14T01:26:23;4.97;;;2.10;;
71572;SDS011;59408;51.032;9.410;2023-03-14T01:28:52;7.00;;;2.17;;
71572;SDS011;59408;51.032;9.410;2023-03-14T01:31:20;5.35;;;2.33;;
71572;SDS011;59408;51.032;9.410;2023-03-14T01:33:46;6.30;;;2.10;;
71572;SDS011;59408;51.032;9.410;2023-03-14T01:36:13;5.07;;;2.10;;
71572;SDS011;59408;51.032;9.410;2023-03-14T01:38:41;6.17;;;2.20;;
71572;SDS011;59408;51.032;9.410;2023-03-14T01:41:10;7.10;;;2.20;;
71572;SDS011;59408;51.032;9.410;2023-03-14T01:43:40;6.53;;;2.20;;
71572;SDS011;59408;51.032;9.410;2023-03-14T01:46:24;6.30;;;2.38;;
71572;SDS011;59408;51.032;9.410;2023-03-14T01:48:59;7.97;;;3.30;;
71572;SDS011;59408;51.032;9.410;2023-03-14T01:51:34;6.27;;;2.20;;
71572;SDS011;59408;51.032;9.410;2023-03-14T01:54:09;7.07;;;2.22;;
71572;SDS011;59408;51.032;9.410;2023-03-14T01:56:41;6.97;;;2.10;;
71572;SDS011;59408;51.032;9.410;2023-03-14T01:59:11;8.07;;;2.00;;
71572;SDS011;59408;51.032;9.410;2023-03-14T02:01:38;5.97;;;1.95;;
71572;SDS011;59408;51.032;9.410;2023-03-14T02:04:09;7.67;;;1.87;;
71572;SDS011;59408;51.032;9.410;2023-03-14T02:06:40;5.72;;;1.80;;
71572;SDS011;59408;51.032;9.410;2023-03-14T02:09:14;7.50;;;2.38;;
71572;SDS011;59408;51.032;9.410;2023-03-14T02:11:41;6.80;;;2.25;;
71572;SDS011;59408;51.032;9.410;2023-03-14T02:14:09;11.25;;;2.47;;
71572;SDS011;59408;51.032;9.410;2023-03-14T02:16:45;5.73;;;1.97;;
71572;SDS011;59408;51.032;9.410;2023-03-14T02:19:12;5.10;;;1.95;;
71572;SDS011;59408;51.032;9.410;2023-03-14T02:21:46;7.40;;;1.90;;
71572;SDS011;59408;51.032;9.410;2023-03-14T02:24:21;6.63;;;1.95;;
71572;SDS011;59408;51.032;9.410;2023-03-14T02:27:02;5.38;;;2.03;;
71572;SDS011;59408;51.032;9.410;2023-03-14T02:29:31;5.40;;;2.00;;
71572;SDS011;59408;51.032;9.410;2023-03-14T02:32:02;9.63;;;2.35;;
71572;SDS011;59408;51.032;9.410;2023-03-14T02:34:30;6.88;;;2.00;;
71572;SDS011;59408;51.032;9.410;2023-03-14T02:36:57;7.00;;;1.80;;
71572;SDS011;59408;51.032;9.410;2023-03-14T02:39:26;5.85;;;2.20;;
71572;SDS011;59408;51.032;9.410;2023-03-14T02:41:59;5.90;;;1.80;;
71572;SDS011;59408;51.032;9.410;2023-03-14T02:44:27;7.97;;;2.22;;
71572;SDS011;59408;51.032;9.410;2023-03-14T02:46:54;6.07;;;1.65;;
71572;SDS011;59408;51.032;9.410;2023-03-14T02:49:20;6.47;;;1.70;;
71572;SDS011;59408;51.032;9.410;2023-03-14T02:51:47;6.80;;;1.95;;
71572;SDS011;59408;51.032;9.410;2023-03-14T02:54:14;5.57;;;1.90;;
71572;SDS011;59408;51.032;9.410;2023-03-14T02:56:42;5.22;;;1.85;;
71572;SDS011;59408;51.032;9.410;2023-03-14T02:59:08;5.82;;;2.00;;
71572;SDS011;59408;51.032;9.410;2023-03-14T03:01:36;5.72;;;1.50;;
71572;SDS011;59408;51.032;9.410;2023-03-14T03:04:03;5.28;;;1.60;;
71572;SDS011;59408;51.032;9.410;2023-03-14T03:06:30;6.17;;;1.80;;
71572;SDS011;59408;51.032;9.410;2023-03-14T03:08:57;6.82;;;1.60;;
71572;SDS011;59408;51.032;9.410;2023-03-14T03:11:24;6.68;;;1.77;;
71572;SDS011;59408;51.032;9.410;2023-03-14T03:13:50;6.95;;;1.80;;
71572;SDS011;59408;51.032;9.410;2023-03-14T03:16:17;7.10;;;1.50;;
71572;SDS011;59408;51.032;9.410;2023-03-14T03:18:45;4.83;;;1.63;;
71572;SDS011;59408;51.032;9.410;2023-03-14T03:21:11;7.30;;;1.70;;
71572;SDS011;59408;51.032;9.410;2023-03-14T03:23:38;7.32;;;1.40;;
71572;SDS011;59408;51.032;9.410;2023-03-14T03:26:05;8.10;;;2.08;;
71572;SDS011;59408;51.032;9.410;2023-03-14T03:28:32;4.80;;;1.48;;
71572;SDS011;59408;51.032;9.410;2023-03-14T03:30:58;6.63;;;1.60;;
71572;SDS011;59408;51.032;9.410;2023-03-14T03:33:25;6.43;;;1.52;;
71572;SDS011;59408;51.032;9.410;2023-03-14T03:35:53;5.70;;;1.42;;
71572;SDS011;59408;51.032;9.410;2023-03-14T03:38:19;5.60;;;1.52;;
71572;SDS011;59408;51.032;9.410;2023-03-14T03:40:46;5.47;;;1.50;;
71572;SDS011;59408;51.032;9.410;2023-03-14T03:43:13;6.57;;;1.53;;
71572;SDS011;59408;51.032;9.410;2023-03-14T03:45:40;6.68;;;1.40;;
71572;SDS011;59408;51.032;9.410;2023-03-14T03:48:06;6.25;;;1.40;;
71572;SDS011;59408;51.032;9.410;2023-03-14T03:50:33;5.45;;;1.30;;
71572;SDS011;59408;51.032;9.410;2023-03-14T03:53:01;7.30;;;1.67;;
71572;SDS011;59408;51.032;9.410;2023-03-14T03:55:27;7.53;;;1.17;;
71572;SDS011;59408;51.032;9.410;2023-03-14T03:57:54;4.88;;;1.10;;
71572;SDS011;59408;51.032;9.410;2023-03-14T04:00:21;5.07;;;1.17;;
71572;SDS011;59408;51.032;9.410;2023-03-14T04:02:47;6.45;;;1.10;;
71572;SDS011;59408;51.032;9.410;2023-03-14T04:05:14;5.20;;;1.42;;
71572;SDS011;59408;51.032;9.410;2023-03-14T04:07:41;4.73;;;1.23;;
71572;SDS011;59408;51.032;9.410;2023-03-14T04:10:09;6.80;;;1.23;;
71572;SDS011;59408;51.032;9.410;2023-03-14T04:12:36;5.82;;;1.20;;
71572;SDS011;59408;51.032;9.410;2023-03-14T04:15:03;5.85;;;1.23;;
71572;SDS011;59408;51.032;9.410;2023-03-14T04:17:30;5.53;;;1.60;;
71572;SDS011;59408;51.032;9.410;2023-03-14T04:19:57;4.80;;;0.97;;
71572;SDS011;59408;51.032;9.410;2023-03-14T04:22:24;5.63;;;1.30;;
71572;SDS011;59408;51.032;9.410;2023-03-14T04:24:50;7.15;;;1.20;;
71572;SDS011;59408;51.032;9.410;2023-03-14T04:27:18;5.05;;;1.00;;
71572;SDS011;59408;51.032;9.410;2023-03-14T04:29:45;5.32;;;1.10;;
71572;SDS011;59408;51.032;9.410;2023-03-14T04:32:12;4.33;;;0.90;;
71572;SDS011;59408;51.032;9.410;2023-03-14T04:34:38;5.15;;;1.05;;
71572;SDS011;59408;51.032;9.410;2023-03-14T04:37:05;5.03;;;1.38;;
71572;SDS011;59408;51.032;9.410;2023-03-14T04:39:31;5.10;;;1.13;;
71572;SDS011;59408;51.032;9.410;2023-03-14T04:41:58;4.43;;;1.20;;
71572;SDS011;59408;51.032;9.410;2023-03-14T04:44:27;5.50;;;1.10;;
71572;SDS011;59408;51.032;9.410;2023-03-14T04:46:53;6.03;;;1.38;;
71572;SDS011;59408;51.032;9.410;2023-03-14T04:49:20;5.88;;;1.30;;
71572;SDS011;59408;51.032;9.410;2023-03-14T04:51:47;6.20;;;1.35;;
71572;SDS011;59408;51.032;9.410;2023-03-14T04:54:13;8.25;;;1.20;;
71572;SDS011;59408;51.032;9.410;2023-03-14T04:56:40;4.83;;;1.20;;
71572;SDS011;59408;51.032;9.410;2023-03-14T04:59:06;4.70;;;1.10;;
71572;SDS011;59408;51.032;9.410;2023-03-14T05:01:34;6.00;;;1.42;;
71572;SDS011;59408;51.032;9.410;2023-03-14T05:04:01;8.20;;;1.70;;
71572;SDS011;59408;51.032;9.410;2023-03-14T05:06:28;7.97;;;1.60;;
71572;SDS011;59408;51.032;9.410;2023-03-14T05:08:55;5.47;;;1.20;;
71572;SDS011;59408;51.032;9.410;2023-03-14T05:11:21;5.20;;;1.00;;
71572;SDS011;59408;51.032;9.410;2023-03-14T05:13:48;5.05;;;1.23;;
71572;SDS011;59408;51.032;9.410;2023-03-14T05:16:15;5.63;;;1.00;;
71572;SDS011;59408;51.032;9.410;2023-03-14T05:18:42;5.10;;;1.20;;
71572;SDS011;59408;51.032;9.410;2023-03-14T05:21:09;5.90;;;1.30;;
71572;SDS011;59408;51.032;9.410;2023-03-14T05:23:35;8.60;;;1.45;;
71572;SDS011;59408;51.032;9.410;2023-03-14T05:26:02;5.47;;;1.33;;
71572;SDS011;59408;51.032;9.410;2023-03-14T05:28:29;4.40;;;1.00;;
71572;SDS011;59408;51.032;9.410;2023-03-14T05:30:56;7.03;;;1.40;;
71572;SDS011;59408;51.032;9.410;2023-03-14T05:33:22;5.07;;;1.40;;
71572;SDS011;59408;51.032;9.410;2023-03-14T05:35:50;6.18;;;1.60;;
71572;SDS011;59408;51.032;9.410;2023-03-14T05:38:17;5.68;;;1.65;;
71572;SDS011;59408;51.032;9.410;2023-03-14T05:40:44;4.75;;;1.27;;
71572;SDS011;59408;51.032;9.410;2023-03-14T05:43:11;6.07;;;1.80;;
71572;SDS011;59408;51.032;9.410;2023-03-14T05:45:38;6.70;;;1.47;;
71572;SDS011;59408;51.032;9.410;2023-03-14T05:48:04;5.97;;;1.52;;
71572;SDS011;59408;51.032;9.410;2023-03-14T05:50:31;4.20;;;1.33;;
71572;SDS011;59408;51.032;9.410;2023-03-14T05:52:59;6.68;;;1.38;;
71572;SDS011;59408;51.032;9.410;2023-03-14T05:55:26;5.80;;;1.58;;
71572;SDS011;59408;51.032;9.410;2023-03-14T05:57:53;5.57;;;1.23;;
71572;SDS011;59408;51.032;9.410;2023-03-14T06:00:21;5.68;;;1.67;;
71572;SDS011;59408;51.032;9.410;2023-03-14T06:02:48;4.13;;;1.30;;
71572;SDS011;59408;51.032;9.410;2023-03-14T06:05:15;5.55;;;1.23;;
71572;SDS011;59408;51.032;9.410;2023-03-14T06:07:42;6.78;;;1.65;;
71572;SDS011;59408;51.032;9.410;2023-03-14T06:10:10;4.50;;;1.20;;
71572;SDS011;59408;51.032;9.410;2023-03-14T06:12:37;5.78;;;1.27;;
71572;SDS011;59408;51.032;9.410;2023-03-14T06:15:04;5.65;;;1.25;;
71572;SDS011;59408;51.032;9.410;2023-03-14T06:17:32;3.97;;;1.40;;
71572;SDS011;59408;51.032;9.410;2023-03-14T06:19:58;8.32;;;1.70;;
71572;SDS011;59408;51.032;9.410;2023-03-14T06:22:25;4.33;;;1.20;;
71572;SDS011;59408;51.032;9.410;2023-03-14T06:24:51;5.28;;;1.20;;
71572;SDS011;59408;51.032;9.410;2023-03-14T06:27:19;5.60;;;1.30;;
71572;SDS011;59408;51.032;9.410;2023-03-14T06:29:46;5.57;;;1.30;;
71572;SDS011;59408;51.032;9.410;2023-03-14T06:32:13;5.43;;;1.08;;
71572;SDS011;59408;51.032;9.410;2023-03-14T06:34:39;4.93;;;1.20;;
71572;SDS011;59408;51.032;9.410;2023-03-14T06:37:06;5.10;;;1.70;;
71572;SDS011;59408;51.032;9.410;2023-03-14T06:39:33;4.45;;;1.27;;
71572;SDS011;59408;51.032;9.410;2023-03-14T06:41:59;3.65;;;1.00;;
71572;SDS011;59408;51.032;9.410;2023-03-14T06:44:27;5.38;;;1.30;;
71572;SDS011;59408;51.032;9.410;2023-03-14T06:46:54;3.53;;;1.07;;
71572;SDS011;59408;51.032;9.410;2023-03-14T06:49:21;7.28;;;1.30;;
71572;SDS011;59408;51.032;9.410;2023-03-14T06:51:48;4.90;;;1.40;;
71572;SDS011;59408;51.032;9.410;2023-03-14T06:54:14;4.95;;;1.20;;
71572;SDS011;59408;51.032;9.410;2023-03-14T06:56:41;5.30;;;1.30;;
71572;SDS011;59408;51.032;9.410;2023-03-14T06:59:08;4.70;;;1.23;;
71572;SDS011;59408;51.032;9.410;2023-03-14T07:01:35;4.50;;;1.20;;
71572;SDS011;59408;51.032;9.410;2023-03-14T07:04:02;5.30;;;1.20;;
71572;SDS011;59408;51.032;9.410;2023-03-14T07:06:29;4.30;;;1.20;;
71572;SDS011;59408;51.032;9.410;2023-03-14T07:08:56;4.90;;;1.10;;
71572;SDS011;59408;51.032;9.410;2023-03-14T07:11:23;6.33;;;1.20;;
71572;SDS011;59408;51.032;9.410;2023-03-14T07:13:49;3.75;;;1.00;;
71572;SDS011;59408;51.032;9.410;2023-03-14T07:16:16;4.05;;;1.00;;
71572;SDS011;59408;51.032;9.410;2023-03-14T07:18:44;4.60;;;1.08;;
71572;SDS011;59408;51.032;9.410;2023-03-14T07:21:11;5.40;;;1.10;;
71572;SDS011;59408;51.032;9.410;2023-03-14T07:23:38;5.23;;;1.20;;
71572;SDS011;59408;51.032;9.410;2023-03-14T07:26:05;4.88;;;1.08;;
71572;SDS011;59408;51.032;9.410;2023-03-14T07:28:32;3.75;;;0.90;;
71572;SDS011;59408;51.032;9.410;2023-03-14T07:30:58;4.78;;;1.00;;
71572;SDS011;59408;51.032;9.410;2023-03-14T07:33:25;3.75;;;1.30;;
71572;SDS011;59408;51.032;9.410;2023-03-14T07:35:53;4.43;;;1.00;;
71572;SDS011;59408;51.032;9.410;2023-03-14T07:38:20;4.60;;;1.25;;
71572;SDS011;59408;51.032;9.410;2023-03-14T07:40:48;3.80;;;0.80;;
71572;SDS011;59408;51.032;9.410;2023-03-14T07:43:15;3.88;;;1.20;;
71572;SDS011;59408;51.032;9.410;2023-03-14T07:45:44;2.65;;;0.80;;
71572;SDS011;59408;51.032;9.410;2023-03-14T07:48:16;4.40;;;0.70;;
71572;SDS011;59408;51.032;9.410;2023-03-14T07:50:43;2.45;;;0.75;;
71572;SDS011;59408;51.032;9.410;2023-03-14T07:53:11;2.97;;;1.02;;
71572;SDS011;59408;51.032;9.410;2023-03-14T07:55:37;3.60;;;1.13;;
71572;SDS011;59408;51.032;9.410;2023-03-14T07:58:05;4.38;;;0.80;;
71572;SDS011;59408;51.032;9.410;2023-03-14T08:00:32;3.70;;;0.73;;
71572;SDS011;59408;51.032;9.410;2023-03-14T08:02:59;4.05;;;0.70;;
71572;SDS011;59408;51.032;9.410;2023-03-14T08:05:26;3.45;;;0.80;;
71572;SDS011;59408;51.032;9.410;2023-03-14T08:07:52;3.55;;;0.85;;
71572;SDS011;59408;51.032;9.410;2023-03-14T08:10:20;4.45;;;1.08;;
71572;SDS011;59408;51.032;9.410;2023-03-14T08:12:47;3.40;;;1.20;;
71572;SDS011;59408;51.032;9.410;2023-03-14T08:15:14;4.10;;;1.00;;
71572;SDS011;59408;51.032;9.410;2023-03-14T08:17:40;3.50;;;0.80;;
71572;SDS011;59408;51.032;9.410;2023-03-14T08:20:07;2.25;;;0.63;;
71572;SDS011;59408;51.032;9.410;2023-03-14T08:22:35;3.40;;;0.68;;
71572;SDS011;59408;51.032;9.410;2023-03-14T08:25:01;2.53;;;0.73;;
71572;SDS011;59408;51.032;9.410;2023-03-14T08:27:29;3.75;;;0.60;;
71572;SDS011;59408;51.032;9.410;2023-03-14T08:29:56;3.13;;;0.70;;
71572;SDS011;59408;51.032;9.410;2023-03-14T08:32:23;4.60;;;0.75;;
71572;SDS011;59408;51.032;9.410;2023-03-14T08:34:49;3.95;;;0.82;;
71572;SDS011;59408;51.032;9.410;2023-03-14T08:37:16;3.53;;;0.90;;
71572;SDS011;59408;51.032;9.410;2023-03-14T08:39:52;2.92;;;0.73;;
71572;SDS011;59408;51.032;9.410;2023-03-14T08:42:19;3.08;;;0.80;;
71572;SDS011;59408;51.032;9.410;2023-03-14T08:44:47;7.93;;;0.80;;
71572;SDS011;59408;51.032;9.410;2023-03-14T08:47:14;4.53;;;0.68;;
71572;SDS011;59408;51.032;9.410;2023-03-14T08:49:40;3.83;;;0.80;;
71572;SDS011;59408;51.032;9.410;2023-03-14T08:52:07;3.95;;;1.00;;
71572;SDS011;59408;51.032;9.410;2023-03-14T08:54:34;5.45;;;0.70;;
71572;SDS011;59408;51.032;9.410;2023-03-14T08:57:01;3.95;;;1.00;;
71572;SDS011;59408;51.032;9.410;2023-03-14T08:59:27;3.15;;;1.00;;
71572;SDS011;59408;51.032;9.410;2023-03-14T09:01:55;4.87;;;1.00;;
71572;SDS011;59408;51.032;9.410;2023-03-14T09:04:22;3.28;;;0.85;;
71572;SDS011;59408;51.032;9.410;2023-03-14T09:06:48;4.60;;;1.20;;
71572;SDS011;59408;51.032;9.410;2023-03-14T09:09:15;4.07;;;1.00;;
71572;SDS011;59408;51.032;9.410;2023-03-14T09:11:42;4.00;;;0.98;;
71572;SDS011;59408;51.032;9.410;2023-03-14T09:14:08;3.77;;;1.00;;
71572;SDS011;59408;51.032;9.410;2023-03-14T09:16:35;4.68;;;0.80;;
71572;SDS011;59408;51.032;9.410;2023-03-14T09:19:03;3.95;;;1.10;;
71572;SDS011;59408;51.032;9.410;2023-03-14T09:21:29;3.67;;;0.93;;
71572;SDS011;59408;51.032;9.410;2023-03-14T09:23:56;3.85;;;0.80;;
71572;SDS011;59408;51.032;9.410;2023-03-14T09:26:23;5.70;;;1.00;;
71572;SDS011;59408;51.032;9.410;2023-03-14T09:28:50;4.68;;;0.80;;
71572;SDS011;59408;51.032;9.410;2023-03-14T09:31:17;3.40;;;1.00;;
71572;SDS011;59408;51.032;9.410;2023-03-14T09:33:44;4.78;;;1.00;;
71572;SDS011;59408;51.032;9.410;2023-03-14T09:36:12;2.55;;;0.75;;
71572;SDS011;59408;51.032;9.410;2023-03-14T09:38:38;3.83;;;0.80;;
71572;SDS011;59408;51.032;9.410;2023-03-14T09:41:13;3.50;;;1.00;;
71572;SDS011;59408;51.032;9.410;2023-03-14T09:43:42;4.07;;;0.80;;
71572;SDS011;59408;51.032;9.410;2023-03-14T09:46:10;5.55;;;0.90;;
71572;SDS011;59408;51.032;9.410;2023-03-14T09:48:38;3.15;;;1.05;;
71572;SDS011;59408;51.032;9.410;2023-03-14T09:51:07;3.67;;;0.83;;
71572;SDS011;59408;51.032;9.410;2023-03-14T09:53:41;3.92;;;0.70;;
71572;SDS011;59408;51.032;9.410;2023-03-14T09:56:10;3.70;;;0.90;;
71572;SDS011;59408;51.032;9.410;2023-03-14T09:58:40;2.70;;;0.77;;
71572;SDS011;59408;51.032;9.410;2023-03-14T10:01:09;3.15;;;0.80;;
71572;SDS011;59408;51.032;9.410;2023-03-14T10:03:41;3.23;;;0.80;;
71572;SDS011;59408;51.032;9.410;2023-03-14T10:06:11;3.55;;;0.80;;
71572;SDS011;59408;51.032;9.410;2023-03-14T10:08:39;3.90;;;0.90;;
71572;SDS011;59408;51.032;9.410;2023-03-14T10:11:09;3.75;;;0.90;;
71572;SDS011;59408;51.032;9.410;2023-03-14T10:13:46;3.10;;;0.90;;
71572;SDS011;59408;51.032;9.410;2023-03-14T10:16:15;4.33;;;1.10;;
71572;SDS011;59408;51.032;9.410;2023-03-14T10:18:44;3.47;;;1.13;;
71572;SDS011;59408;51.032;9.410;2023-03-14T10:21:28;3.70;;;0.70;;
71572;SDS011;59408;51.032;9.410;2023-03-14T10:24:06;3.05;;;0.80;;
71572;SDS011;59408;51.032;9.410;2023-03-14T10:26:34;2.40;;;0.70;;
71572;SDS011;59408;51.032;9.410;2023-03-14T10:29:02;3.27;;;0.70;;
71572;SDS011;59408;51.032;9.410;2023-03-14T10:31:45;2.83;;;0.75;;
71572;SDS011;59408;51.032;9.410;2023-03-14T10:34:15;2.70;;;0.80;;
71572;SDS011;59408;51.032;9.410;2023-03-14T10:36:45;3.42;;;0.70;;
71572;SDS011;59408;51.032;9.410;2023-03-14T10:39:25;2.20;;;0.75;;
71572;SDS011;59408;51.032;9.410;2023-03-14T10:41:55;5.07;;;0.87;;
71572;SDS011;59408;51.032;9.410;2023-03-14T10:44:30;2.85;;;0.82;;
71572;SDS011;59408;51.032;9.410;2023-03-14T10:46:58;4.38;;;0.80;;
71572;SDS011;59408;51.032;9.410;2023-03-14T10:49:28;3.25;;;0.73;;
71572;SDS011;59408;51.032;9.410;2023-03-14T10:51:57;3.30;;;0.90;;
71572;SDS011;59408;51.032;9.410;2023-03-14T10:54:29;3.60;;;0.73;;
71572;SDS011;59408;51.032;9.410;2023-03-14T10:56:56;3.42;;;0.85;;
71572;SDS011;59408;51.032;9.410;2023-03-14T10:59:24;3.03;;;0.90;;
71572;SDS011;59408;51.032;9.410;2023-03-14T11:01:54;2.70;;;1.00;;
71572;SDS011;59408;51.032;9.410;2023-03-14T11:04:28;2.60;;;0.80;;
71572;SDS011;59408;51.032;9.410;2023-03-14T11:07:14;2.30;;;0.80;;
71572;SDS011;59408;51.032;9.410;2023-03-14T11:09:48;2.97;;;0.98;;
71572;SDS011;59408;51.032;9.410;2023-03-14T11:12:26;6.40;;;2.28;;
71572;SDS011;59408;51.032;9.410;2023-03-14T11:15:04;5.35;;;1.75;;
71572;SDS011;59408;51.032;9.410;2023-03-14T11:17:38;2.97;;;0.80;;
71572;SDS011;59408;51.032;9.410;2023-03-14T11:20:16;2.60;;;0.87;;
71572;SDS011;59408;51.032;9.410;2023-03-14T11:22:57;2.53;;;0.80;;
71572;SDS011;59408;51.032;9.410;2023-03-14T11:25:29;3.92;;;1.20;;
71572;SDS011;59408;51.032;9.410;2023-03-14T11:28:07;2.83;;;0.75;;
71572;SDS011;59408;51.032;9.410;2023-03-14T11:30:42;3.10;;;0.90;;
71572;SDS011;59408;51.032;9.410;2023-03-14T11:33:16;3.23;;;1.03;;
71572;SDS011;59408;51.032;9.410;2023-03-14T11:35:45;5.63;;;1.83;;
71572;SDS011;59408;51.032;9.410;2023-03-14T11:38:19;3.55;;;1.00;;
71572;SDS011;59408;51.032;9.410;2023-03-14T11:40:58;9.55;;;3.38;;
71572;SDS011;59408;51.032;9.410;2023-03-14T11:43:26;7.88;;;2.97;;
71572;SDS011;59408;51.032;9.410;2023-03-14T11:45:56;5.50;;;1.50;;
71572;SDS011;59408;51.032;9.410;2023-03-14T11:48:35;4.85;;;0.90;;
71572;SDS011;59408;51.032;9.410;2023-03-14T11:51:08;4.65;;;0.95;;
71572;SDS011;59408;51.032;9.410;2023-03-14T11:53:45;4.25;;;1.40;;
71572;SDS011;59408;51.032;9.410;2023-03-14T11:56:20;3.28;;;1.00;;
71572;SDS011;59408;51.032;9.410;2023-03-14T11:58:55;4.97;;;1.37;;
71572;SDS011;59408;51.032;9.410;2023-03-14T12:01:27;3.38;;;0.90;;
71572;SDS011;59408;51.032;9.410;2023-03-14T12:04:05;5.25;;;1.33;;
71572;SDS011;59408;51.032;9.410;2023-03-14T12:06:40;2.50;;;0.73;;
71572;SDS011;59408;51.032;9.410;2023-03-14T12:09:14;3.05;;;0.90;;
71572;SDS011;59408;51.032;9.410;2023-03-14T12:11:43;3.20;;;0.97;;
71572;SDS011;59408;51.032;9.410;2023-03-14T12:14:17;3.45;;;0.90;;
71572;SDS011;59408;51.032;9.410;2023-03-14T12:16:46;5.00;;;1.40;;
71572;SDS011;59408;51.032;9.410;2023-03-14T12:22:07;3.17;;;0.80;;
71572;SDS011;59408;51.032;9.410;2023-03-14T12:24:45;3.73;;;0.80;;
71572;SDS011;59408;51.032;9.410;2023-03-14T12:30:14;2.08;;;0.65;;
71572;SDS011;59408;51.032;9.410;2023-03-14T12:32:43;2.75;;;0.70;;
71572;SDS011;59408;51.032;9.410;2023-03-14T12:35:57;2.58;;;0.70;;
71572;SDS011;59408;51.032;9.410;2023-03-14T12:38:27;3.83;;;0.80;;
71572;SDS011;59408;51.032;9.410;2023-03-14T12:41:05;2.22;;;0.50;;
71572;SDS011;59408;51.032;9.410;2023-03-14T12:43:39;2.05;;;0.50;;
71572;SDS011;59408;51.032;9.410;2023-03-14T12:46:07;1.75;;;0.55;;
71572;SDS011;59408;51.032;9.410;2023-03-14T12:48:40;1.90;;;0.50;;
71572;SDS011;59408;51.032;9.410;2023-03-14T12:51:12;1.67;;;0.50;;
71572;SDS011;59408;51.032;9.410;2023-03-14T12:53:44;1.48;;;0.50;;
71572;SDS011;59408;51.032;9.410;2023-03-14T12:56:24;2.95;;;0.57;;
71572;SDS011;59408;51.032;9.410;2023-03-14T12:59:05;2.03;;;0.70;;
71572;SDS011;59408;51.032;9.410;2023-03-14T13:01:46;1.95;;;0.50;;
71572;SDS011;59408;51.032;9.410;2023-03-14T13:04:19;2.20;;;0.50;;
71572;SDS011;59408;51.032;9.410;2023-03-14T13:07:04;2.95;;;0.57;;
71572;SDS011;59408;51.032;9.410;2023-03-14T13:09:35;1.38;;;0.60;;
71572;SDS011;59408;51.032;9.410;2023-03-14T13:12:18;1.63;;;0.50;;
71572;SDS011;59408;51.032;9.410;2023-03-14T13:14:51;1.67;;;0.50;;
71572;SDS011;59408;51.032;9.410;2023-03-14T13:17:21;1.43;;;0.40;;
71572;SDS011;59408;51.032;9.410;2023-03-14T13:20:02;1.50;;;0.50;;
71572;SDS011;59408;51.032;9.410;2023-03-14T13:22:36;2.92;;;0.77;;
71572;SDS011;59408;51.032;9.410;2023-03-14T13:25:03;1.25;;;0.40;;
71572;SDS011;59408;51.032;9.410;2023-03-14T13:27:33;1.48;;;0.60;;
71572;SDS011;59408;51.032;9.410;2023-03-14T13:30:05;2.07;;;0.50;;
71572;SDS011;59408;51.032;9.410;2023-03-14T13:32:41;2.03;;;0.57;;
71572;SDS011;59408;51.032;9.410;2023-03-14T13:35:14;2.42;;;0.75;;
71572;SDS011;59408;51.032;9.410;2023-03-14T13:37:42;1.73;;;0.60;;
71572;SDS011;59408;51.032;9.410;2023-03-14T13:40:17;1.17;;;0.50;;
71572;SDS011;59408;51.032;9.410;2023-03-14T13:42:46;2.23;;;0.60;;
71572;SDS011;59408;51.032;9.410;2023-03-14T13:45:13;1.70;;;0.60;;
71572;SDS011;59408;51.032;9.410;2023-03-14T13:47:40;2.03;;;0.65;;
71572;SDS011;59408;51.032;9.410;2023-03-14T13:50:11;1.50;;;0.50;;
71572;SDS011;59408;51.032;9.410;2023-03-14T13:52:40;2.20;;;0.60;;
71572;SDS011;59408;51.032;9.410;2023-03-14T13:55:13;1.60;;;0.50;;
71572;SDS011;59408;51.032;9.410;2023-03-14T13:57:43;1.92;;;0.52;;
71572;SDS011;59408;51.032;9.410;2023-03-14T14:00:19;2.08;;;0.50;;
71572;SDS011;59408;51.032;9.410;2023-03-14T14:02:47;1.55;;;0.60;;
71572;SDS011;59408;51.032;9.410;2023-03-14T14:05:14;2.85;;;0.82;;
71572;SDS011;59408;51.032;9.410;2023-03-14T14:07:42;2.23;;;0.60;;
71572;SDS011;59408;51.032;9.410;2023-03-14T14:10:10;1.65;;;0.60;;
71572;SDS011;59408;51.032;9.410;2023-03-14T14:12:39;2.85;;;0.65;;
71572;SDS011;59408;51.032;9.410;2023-03-14T14:15:12;2.13;;;0.60;;
71572;SDS011;59408;51.032;9.410;2023-03-14T14:17:44;2.40;;;0.60;;
71572;SDS011;59408;51.032;9.410;2023-03-14T14:20:16;4.00;;;1.00;;
71572;SDS011;59408;51.032;9.410;2023-03-14T14:22:48;4.75;;;0.80;;
71572;SDS011;59408;51.032;9.410;2023-03-14T14:25:15;5.65;;;0.93;;
71572;SDS011;59408;51.032;9.410;2023-03-14T14:27:43;6.88;;;0.98;;
71572;SDS011;59408;51.032;9.410;2023-03-14T14:33:10;8.50;;;1.10;;
71572;SDS011;59408;51.032;9.410;2023-03-14T14:35:42;5.53;;;1.20;;
71572;SDS011;59408;51.032;9.410;2023-03-14T14:38:18;6.47;;;1.23;;
71572;SDS011;59408;51.032;9.410;2023-03-14T14:40:45;4.53;;;0.98;;
71572;SDS011;59408;51.032;9.410;2023-03-14T14:43:15;5.75;;;0.90;;
71572;SDS011;59408;51.032;9.410;2023-03-14T14:45:45;4.60;;;1.07;;
71572;SDS011;59408;51.032;9.410;2023-03-14T14:48:15;8.20;;;1.20;;
71572;SDS011;59408;51.032;9.410;2023-03-14T14:50:49;3.45;;;1.10;;
71572;SDS011;59408;51.032;9.410;2023-03-14T14:53:22;4.35;;;1.08;;
71572;SDS011;59408;51.032;9.410;2023-03-14T14:55:53;6.28;;;1.25;;
71572;SDS011;59408;51.032;9.410;2023-03-14T14:58:23;5.77;;;1.30;;
71572;SDS011;59408;51.032;9.410;2023-03-14T15:00:53;5.65;;;1.10;;
71572;SDS011;59408;51.032;9.410;2023-03-14T15:03:24;4.85;;;1.30;;
71572;SDS011;59408;51.032;9.410;2023-03-14T15:05:53;6.65;;;1.90;;
71572;SDS011;59408;51.032;9.410;2023-03-14T15:08:20;4.47;;;1.30;;